Time,TemperatureF,DewpointF,PressureIn,WindDirection,WindDirectionDegrees,WindSpeedMPH,WindSpeedGustMPH,Humidity,HourlyPrecipIn,Conditions,Clouds,dailyrainin,SoftwareType,DateUTC
2013-05-07 00:01:00,48.2,46.3,29.79,WSW,243,0.0,13.0,93,0.00,,,0.00,Wunderground v.1.15,2013-05-07 04:01:00,
2013-05-07 00:05:00,48.1,46.2,29.78,WSW,243,0.0,13.0,93,0.00,,,0.00,Wunderground v.1.15,2013-05-07 04:05:00,
2013-05-07 00:10:00,48.2,46.3,29.78,WSW,243,0.0,13.0,93,0.00,,,0.00,Wunderground v.1.15,2013-05-07 04:10:00,
2013-05-07 00:15:00,48.1,46.2,29.78,WSW,243,0.0,13.0,93,0.00,,,0.00,Wunderground v.1.15,2013-05-07 04:15:00,
2013-05-07 00:20:00,48.0,46.1,29.78,WSW,243,0.0,13.0,93,0.00,,,0.00,Wunderground v.1.15,2013-05-07 04:20:00,
2013-05-07 00:25:00,48.0,46.1,29.78,WSW,243,0.0,13.0,93,0.00,,,0.00,Wunderground v.1.15,2013-05-07 04:25:00,
2013-05-07 00:30:00,47.9,46.0,29.79,WSW,243,0.0,13.0,93,0.00,,,0.00,Wunderground v.1.15,2013-05-07 04:30:00,
2013-05-07 00:36:00,47.7,45.8,29.79,WSW,243,0.0,13.0,93,0.00,,,0.00,Wunderground v.1.15,2013-05-07 04:36:00,
2013-05-07 00:41:00,47.6,45.7,29.79,WSW,243,0.0,13.0,93,0.00,,,0.00,Wunderground v.1.15,2013-05-07 04:41:00,
2013-05-07 00:46:00,47.5,45.6,29.80,WSW,243,0.0,13.0,93,0.00,,,0.00,Wunderground v.1.15,2013-05-07 04:46:00,
2013-05-07 00:51:00,47.4,45.5,29.79,WSW,243,0.0,13.0,93,0.00,,,0.00,Wunderground v.1.15,2013-05-07 04:51:00,
2013-05-07 00:56:00,47.4,45.8,29.79,WSW,243,0.0,13.0,94,0.00,,,0.00,Wunderground v.1.15,2013-05-07 04:56:00,
2013-05-07 01:01:00,47.4,45.8,29.79,WSW,253,0.0,13.0,94,0.00,,,0.00,Wunderground v.1.15,2013-05-07 05:01:00,
2013-05-07 01:11:00,47.3,45.7,29.79,WSW,253,0.0,13.0,94,0.00,,,0.00,Wunderground v.1.15,2013-05-07 05:11:00,
2013-05-07 01:16:00,47.2,45.6,29.79,WSW,253,0.0,13.0,94,0.00,,,0.00,Wunderground v.1.15,2013-05-07 05:16:00,
2013-05-07 01:21:00,47.0,45.4,29.79,WSW,253,0.0,13.0,94,0.00,,,0.00,Wunderground v.1.15,2013-05-07 05:21:00,
2013-05-07 01:26:00,46.9,45.3,29.80,WSW,253,0.0,13.0,94,0.00,,,0.00,Wunderground v.1.15,2013-05-07 05:26:00,
2013-05-07 01:31:00,46.8,45.2,29.79,WSW,253,0.0,13.0,94,0.00,,,0.00,Wunderground v.1.15,2013-05-07 05:31:00,
2013-05-07 01:36:00,46.8,45.2,29.79,WSW,253,0.0,13.0,94,0.00,,,0.00,Wunderground v.1.15,2013-05-07 05:36:00,
2013-05-07 01:46:00,46.7,45.1,29.79,WSW,253,0.0,13.0,94,0.00,,,0.00,Wunderground v.1.15,2013-05-07 05:46:00,
2013-05-07 01:51:00,46.7,45.1,29.79,WSW,253,0.0,13.0,94,0.00,,,0.00,Wunderground v.1.15,2013-05-07 05:51:00,
2013-05-07 01:56:00,46.7,45.1,29.78,WSW,253,0.0,13.0,94,0.00,,,0.00,Wunderground v.1.15,2013-05-07 05:56:00,
2013-05-07 02:01:00,46.8,45.4,29.78,WSW,253,0.0,13.0,95,0.00,,,0.00,Wunderground v.1.15,2013-05-07 06:01:00,
2013-05-07 02:06:00,46.8,45.4,29.78,WSW,253,0.0,13.0,95,0.00,,,0.00,Wunderground v.1.15,2013-05-07 06:06:00,
2013-05-07 02:16:00,46.8,45.4,29.78,WSW,253,0.0,13.0,95,0.00,,,0.00,Wunderground v.1.15,2013-05-07 06:16:00,
2013-05-07 02:21:00,46.7,45.1,29.77,WSW,253,0.0,13.0,94,0.00,,,0.00,Wunderground v.1.15,2013-05-07 06:21:00,
2013-05-07 02:26:00,46.7,45.1,29.77,WSW,253,0.0,13.0,94,0.00,,,0.00,Wunderground v.1.15,2013-05-07 06:26:00,
2013-05-07 02:31:00,46.7,45.3,29.78,WSW,253,0.0,13.0,95,0.00,,,0.00,Wunderground v.1.15,2013-05-07 06:31:00,
2013-05-07 02:36:00,47.0,45.6,29.77,WSW,253,0.0,13.0,95,0.00,,,0.00,Wunderground v.1.15,2013-05-07 06:36:00,
2013-05-07 02:41:00,47.1,45.7,29.77,WSW,253,0.0,13.0,95,0.00,,,0.00,Wunderground v.1.15,2013-05-07 06:41:00,
2013-05-07 02:51:00,47.3,45.9,29.77,WSW,253,0.0,13.0,95,0.00,,,0.00,Wunderground v.1.15,2013-05-07 06:51:00,
2013-05-07 02:56:00,47.4,46.0,29.77,WSW,253,0.0,13.0,95,0.00,,,0.00,Wunderground v.1.15,2013-05-07 06:56:00,
2013-05-07 03:01:00,47.4,46.0,29.77,WSW,253,0.0,13.0,95,0.00,,,0.00,Wunderground v.1.15,2013-05-07 07:01:00,
2013-05-07 03:06:00,47.6,46.2,29.77,WSW,253,0.0,13.0,95,0.00,,,0.00,Wunderground v.1.15,2013-05-07 07:06:00,
2013-05-07 03:11:00,47.6,46.2,29.77,WSW,253,0.0,13.0,95,0.00,,,0.00,Wunderground v.1.15,2013-05-07 07:11:00,
2013-05-07 03:21:00,47.8,46.4,29.77,WSW,253,0.0,13.0,95,0.00,,,0.00,Wunderground v.1.15,2013-05-07 07:21:00,
2013-05-07 03:26:00,47.8,46.4,29.77,WSW,253,0.0,13.0,95,0.00,,,0.00,Wunderground v.1.15,2013-05-07 07:26:00,
2013-05-07 03:31:00,47.8,46.4,29.77,WSW,253,0.0,13.0,95,0.00,,,0.00,Wunderground v.1.15,2013-05-07 07:31:00,
2013-05-07 03:36:00,47.9,46.5,29.77,WSW,253,0.0,13.0,95,0.00,,,0.00,Wunderground v.1.15,2013-05-07 07:36:00,
2013-05-07 03:41:00,48.0,46.6,29.77,WSW,254,0.0,13.0,95,0.00,,,0.00,Wunderground v.1.15,2013-05-07 07:41:00,
2013-05-07 03:46:00,48.2,46.8,29.77,WSW,254,0.0,13.0,95,0.00,,,0.00,Wunderground v.1.15,2013-05-07 07:46:00,
2013-05-07 03:55:00,48.6,47.5,29.76,WSW,255,0.0,13.0,96,0.00,,,0.00,Wunderground v.1.15,2013-05-07 07:55:00,
2013-05-07 04:01:00,48.4,47.0,29.76,WSW,254,0.0,13.0,95,0.00,,,0.00,Wunderground v.1.15,2013-05-07 08:01:00,
2013-05-07 04:11:00,47.9,46.5,29.76,WSW,255,0.0,13.0,95,0.00,,,0.00,Wunderground v.1.15,2013-05-07 08:11:00,
2013-05-07 04:16:00,47.8,46.4,29.76,WSW,255,0.0,13.0,95,0.00,,,0.00,Wunderground v.1.15,2013-05-07 08:16:00,
2013-05-07 04:26:00,47.6,46.2,29.76,WSW,255,0.0,13.0,95,0.00,,,0.00,Wunderground v.1.15,2013-05-07 08:26:00,
2013-05-07 04:31:00,47.5,46.1,29.76,WSW,255,0.0,13.0,95,0.00,,,0.00,Wunderground v.1.15,2013-05-07 08:31:00,
2013-05-07 04:36:00,47.3,45.9,29.76,WSW,255,0.0,13.0,95,0.00,,,0.00,Wunderground v.1.15,2013-05-07 08:36:00,
2013-05-07 04:41:00,47.2,45.6,29.76,WSW,255,0.0,13.0,94,0.00,,,0.00,Wunderground v.1.15,2013-05-07 08:41:00,
2013-05-07 04:46:00,46.9,45.3,29.76,WSW,255,0.0,13.0,94,0.00,,,0.00,Wunderground v.1.15,2013-05-07 08:46:00,
2013-05-07 04:51:00,46.7,45.1,29.76,WSW,255,0.0,13.0,94,0.00,,,0.00,Wunderground v.1.15,2013-05-07 08:51:00,
2013-05-07 05:01:00,46.1,44.5,29.76,WSW,255,0.0,13.0,94,0.00,,,0.00,Wunderground v.1.15,2013-05-07 09:01:00,
2013-05-07 05:06:00,46.0,44.4,29.77,WSW,255,0.0,13.0,94,0.00,,,0.00,Wunderground v.1.15,2013-05-07 09:06:00,
2013-05-07 05:11:00,45.9,44.3,29.77,WSW,255,0.0,13.0,94,0.00,,,0.00,Wunderground v.1.15,2013-05-07 09:11:00,
2013-05-07 05:16:00,45.9,44.5,29.77,WSW,255,0.0,13.0,95,0.00,,,0.00,Wunderground v.1.15,2013-05-07 09:16:00,
2013-05-07 05:21:00,45.9,44.5,29.77,WSW,255,0.0,13.0,95,0.00,,,0.00,Wunderground v.1.15,2013-05-07 09:21:00,
2013-05-07 05:31:00,45.8,44.4,29.76,WSW,255,0.0,13.0,95,0.00,,,0.00,Wunderground v.1.15,2013-05-07 09:31:00,
2013-05-07 05:36:00,45.5,43.9,29.76,WSW,255,0.0,13.0,94,0.00,,,0.00,Wunderground v.1.15,2013-05-07 09:36:00,
2013-05-07 05:41:00,45.3,43.7,29.76,WSW,255,0.0,13.0,94,0.00,,,0.00,Wunderground v.1.15,2013-05-07 09:41:00,
2013-05-07 05:46:00,45.1,43.5,29.76,WSW,255,0.0,13.0,94,0.00,,,0.00,Wunderground v.1.15,2013-05-07 09:46:00,
2013-05-07 05:51:00,45.0,43.7,29.77,WSW,254,0.0,13.0,95,0.00,,,0.00,Wunderground v.1.15,2013-05-07 09:51:00,
2013-05-07 05:56:00,45.0,43.7,29.77,WSW,254,0.0,13.0,95,0.00,,,0.00,Wunderground v.1.15,2013-05-07 09:56:00,
2013-05-07 06:05:00,45.4,44.1,29.77,WSW,255,0.0,13.0,95,0.00,,,0.00,Wunderground v.1.15,2013-05-07 10:05:00,
2013-05-07 06:10:00,45.6,44.5,29.77,WSW,255,0.0,13.0,96,0.00,,,0.00,Wunderground v.1.15,2013-05-07 10:10:00,
2013-05-07 06:16:00,45.8,44.4,29.77,WSW,255,0.0,13.0,95,0.00,,,0.00,Wunderground v.1.15,2013-05-07 10:16:00,
2013-05-07 06:21:00,45.9,44.8,29.77,WSW,255,0.0,13.0,96,0.00,,,0.00,Wunderground v.1.15,2013-05-07 10:21:00,
2013-05-07 06:26:00,46.0,44.9,29.77,WSW,255,0.0,13.0,96,0.00,,,0.00,Wunderground v.1.15,2013-05-07 10:26:00,
2013-05-07 06:35:00,46.2,45.1,29.77,WSW,255,0.0,13.0,96,0.00,,,0.00,Wunderground v.1.15,2013-05-07 10:35:00,
2013-05-07 06:40:00,46.3,45.2,29.78,WSW,255,0.0,13.0,96,0.00,,,0.00,Wunderground v.1.15,2013-05-07 10:40:00,
2013-05-07 06:45:00,46.4,45.3,29.78,WSW,255,0.0,13.0,96,0.00,,,0.00,Wunderground v.1.15,2013-05-07 10:45:00,
2013-05-07 06:50:00,46.5,45.4,29.78,WSW,255,0.0,13.0,96,0.00,,,0.00,Wunderground v.1.15,2013-05-07 10:50:00,
2013-05-07 06:55:00,46.4,45.0,29.78,WSW,255,0.0,13.0,95,0.00,,,0.00,Wunderground v.1.15,2013-05-07 10:55:00,
2013-05-07 07:00:00,46.3,44.9,29.78,WSW,255,0.0,13.0,95,0.00,,,0.00,Wunderground v.1.15,2013-05-07 11:00:00,
2013-05-07 07:10:00,46.2,44.8,29.78,WSW,255,0.0,13.0,95,0.00,,,0.00,Wunderground v.1.15,2013-05-07 11:10:00,
2013-05-07 07:15:00,46.4,45.3,29.78,West,275,0.0,13.0,96,0.00,,,0.00,Wunderground v.1.15,2013-05-07 11:15:00,
2013-05-07 07:20:00,46.3,44.9,29.79,West,275,0.0,13.0,95,0.00,,,0.00,Wunderground v.1.15,2013-05-07 11:20:00,
2013-05-07 07:25:00,46.3,44.9,29.79,West,275,0.0,13.0,95,0.00,,,0.00,Wunderground v.1.15,2013-05-07 11:25:00,
2013-05-07 07:30:00,46.3,44.9,29.79,West,275,0.0,13.0,95,0.00,,,0.00,Wunderground v.1.15,2013-05-07 11:30:00,
2013-05-07 07:36:00,46.5,45.4,29.79,West,275,0.0,13.0,96,0.00,,,0.00,Wunderground v.1.15,2013-05-07 11:36:00,
2013-05-07 07:41:00,46.7,45.6,29.79,West,275,0.0,13.0,96,0.00,,,0.00,Wunderground v.1.15,2013-05-07 11:41:00,
2013-05-07 07:46:00,47.0,45.9,29.79,West,275,0.0,13.0,96,0.00,,,0.00,Wunderground v.1.15,2013-05-07 11:46:00,
2013-05-07 07:51:00,47.2,46.1,29.79,West,275,0.0,13.0,96,0.00,,,0.00,Wunderground v.1.15,2013-05-07 11:51:00,
2013-05-07 07:56:00,47.6,46.5,29.79,West,275,0.0,13.0,96,0.00,,,0.00,Wunderground v.1.15,2013-05-07 11:56:00,
2013-05-07 08:01:00,48.2,47.1,29.79,West,275,0.0,0.0,96,0.00,,,0.00,Wunderground v.1.15,2013-05-07 12:01:00,
2013-05-07 08:10:00,49.6,48.8,29.79,West,275,0.0,0.0,97,0.00,,,0.00,Wunderground v.1.15,2013-05-07 12:10:00,
2013-05-07 08:15:00,49.9,49.1,29.79,West,275,0.0,0.0,97,0.00,,,0.00,Wunderground v.1.15,2013-05-07 12:15:00,
2013-05-07 08:21:00,50.5,49.7,29.79,West,275,0.0,0.0,97,0.00,,,0.00,Wunderground v.1.15,2013-05-07 12:21:00,
2013-05-07 08:25:00,51.2,50.4,29.79,West,275,0.0,0.0,97,0.00,,,0.00,Wunderground v.1.15,2013-05-07 12:25:00,
2013-05-07 08:31:00,51.9,51.1,29.79,West,275,0.0,0.0,97,0.00,,,0.00,Wunderground v.1.15,2013-05-07 12:31:00,
2013-05-07 08:36:00,52.4,51.6,29.79,West,275,0.0,0.0,97,0.00,,,0.00,Wunderground v.1.15,2013-05-07 12:36:00,
2013-05-07 08:41:00,53.0,52.2,29.79,West,275,0.0,0.0,97,0.00,,,0.00,Wunderground v.1.15,2013-05-07 12:41:00,
2013-05-07 08:50:00,54.1,53.5,29.79,West,273,0.0,0.0,98,0.00,,,0.00,Wunderground v.1.15,2013-05-07 12:50:00,
2013-05-07 08:55:00,54.4,53.6,29.79,West,273,0.0,0.0,97,0.00,,,0.00,Wunderground v.1.15,2013-05-07 12:55:00,
2013-05-07 09:01:00,54.6,53.8,29.80,West,273,0.0,0.0,97,0.00,,,0.00,Wunderground v.1.15,2013-05-07 13:01:00,
2013-05-07 09:11:00,54.8,53.7,29.80,SW,225,0.0,0.0,96,0.00,,,0.00,Wunderground v.1.15,2013-05-07 13:11:00,
2013-05-07 09:21:00,55.3,53.6,29.80,SW,214,0.0,0.0,94,0.00,,,0.00,Wunderground v.1.15,2013-05-07 13:21:00,
2013-05-07 09:26:00,55.8,53.8,29.79,SW,214,0.0,0.0,93,0.00,,,0.00,Wunderground v.1.15,2013-05-07 13:26:00,
2013-05-07 09:36:00,57.0,54.7,29.80,SSW,199,0.0,0.0,92,0.00,,,0.00,Wunderground v.1.15,2013-05-07 13:36:00,
2013-05-07 09:41:00,57.6,54.7,29.80,SW,217,0.0,0.0,90,0.00,,,0.00,Wunderground v.1.15,2013-05-07 13:41:00,
2013-05-07 09:51:00,58.5,55.0,29.80,SW,226,0.0,0.0,88,0.00,,,0.00,Wunderground v.1.15,2013-05-07 13:51:00,
2013-05-07 09:56:00,58.7,54.5,29.81,SSW,200,0.0,0.0,86,0.00,,,0.00,Wunderground v.1.15,2013-05-07 13:56:00,
2013-05-07 10:01:00,59.1,55.2,29.80,SW,225,0.0,0.0,87,0.00,,,0.00,Wunderground v.1.15,2013-05-07 14:01:00,
2013-05-07 10:11:00,59.7,55.5,29.80,NW,305,0.0,0.0,86,0.00,,,0.00,Wunderground v.1.15,2013-05-07 14:11:00,
2013-05-07 10:16:00,59.9,55.4,29.80,WNW,302,0.0,0.0,85,0.00,,,0.00,Wunderground v.1.15,2013-05-07 14:16:00,
2013-05-07 10:21:00,60.0,55.2,29.80,NW,308,0.0,0.0,84,0.00,,,0.00,Wunderground v.1.15,2013-05-07 14:21:00,
2013-05-07 10:26:00,60.5,56.3,29.80,WNW,302,0.0,0.0,86,0.00,,,0.00,Wunderground v.1.15,2013-05-07 14:26:00,
2013-05-07 10:31:00,61.1,55.9,29.80,SSW,213,0.0,0.0,83,0.00,,,0.00,Wunderground v.1.15,2013-05-07 14:31:00,
2013-05-07 10:36:00,61.3,55.8,29.80,SSW,192,0.0,0.0,82,0.00,,,0.00,Wunderground v.1.15,2013-05-07 14:36:00,
2013-05-07 10:41:00,61.7,55.8,29.80,SW,229,0.0,0.0,81,0.00,,,0.00,Wunderground v.1.15,2013-05-07 14:41:00,
2013-05-07 10:51:00,61.8,55.2,29.80,WSW,250,0.0,0.0,79,0.00,,,0.00,Wunderground v.1.15,2013-05-07 14:51:00,
2013-05-07 10:56:00,62.3,55.7,29.80,SW,218,0.0,0.0,79,0.00,,,0.00,Wunderground v.1.15,2013-05-07 14:56:00,
2013-05-07 11:01:00,62.9,55.6,29.80,SSW,199,0.0,0.0,77,0.00,,,0.00,Wunderground v.1.15,2013-05-07 15:01:00,
2013-05-07 11:16:00,63.7,55.3,29.80,SW,221,0.0,0.0,74,0.00,,,0.00,Wunderground v.1.15,2013-05-07 15:16:00,
2013-05-07 11:21:00,63.5,54.7,29.80,SW,221,0.0,0.0,73,0.00,,,0.00,Wunderground v.1.15,2013-05-07 15:21:00,
2013-05-07 11:26:00,63.8,53.0,29.79,SW,217,0.0,0.0,68,0.00,,,0.00,Wunderground v.1.15,2013-05-07 15:26:00,
2013-05-07 11:36:00,64.4,52.4,29.79,SSE,152,1.0,1.0,65,0.00,,,0.00,Wunderground v.1.15,2013-05-07 15:36:00,
2013-05-07 11:46:00,64.3,51.9,29.79,SSW,209,0.0,1.0,64,0.00,,,0.00,Wunderground v.1.15,2013-05-07 15:46:00,
2013-05-07 11:51:00,64.4,50.2,29.79,West,266,0.0,0.0,60,0.00,,,0.00,Wunderground v.1.15,2013-05-07 15:51:00,
2013-05-07 11:56:00,64.4,50.7,29.79,West,260,0.0,0.0,61,0.00,,,0.00,Wunderground v.1.15,2013-05-07 15:56:00,
2013-05-07 12:01:00,64.6,52.6,29.78,ESE,113,0.0,0.0,65,0.00,,,0.00,Wunderground v.1.15,2013-05-07 16:01:00,
2013-05-07 12:11:00,65.2,52.3,29.79,East,101,0.0,0.0,63,0.00,,,0.00,Wunderground v.1.15,2013-05-07 16:11:00,
2013-05-07 12:16:00,65.0,55.4,29.79,ENE,59,0.0,0.0,71,0.00,,,0.00,Wunderground v.1.15,2013-05-07 16:16:00,
2013-05-07 12:21:00,63.8,52.6,29.79,NE,53,1.0,1.0,67,0.00,,,0.00,Wunderground v.1.15,2013-05-07 16:21:00,
2013-05-07 12:26:00,62.8,52.1,29.79,NNE,30,1.0,1.0,68,0.00,,,0.00,Wunderground v.1.15,2013-05-07 16:26:00,
2013-05-07 12:31:00,62.6,52.7,29.79,ENE,64,0.0,0.0,70,0.00,,,0.00,Wunderground v.1.15,2013-05-07 16:31:00,
2013-05-07 12:36:00,62.4,52.5,29.79,NNE,16,0.0,0.0,70,0.00,,,0.00,Wunderground v.1.15,2013-05-07 16:36:00,
2013-05-07 12:46:00,61.9,52.4,29.79,NNE,24,0.0,0.0,71,0.00,,,0.00,Wunderground v.1.15,2013-05-07 16:46:00,
2013-05-07 12:51:00,61.6,52.5,29.79,NE,49,0.0,0.0,72,0.00,,,0.00,Wunderground v.1.15,2013-05-07 16:51:00,
2013-05-07 12:56:00,61.6,52.9,29.79,NNE,22,0.0,0.0,73,0.00,,,0.00,Wunderground v.1.15,2013-05-07 16:56:00,
2013-05-07 13:01:00,61.5,52.4,29.78,NNE,30,0.0,0.0,72,0.00,,,0.00,Wunderground v.1.15,2013-05-07 17:01:00,
2013-05-07 13:11:00,62.4,53.3,29.78,NNE,28,0.0,0.0,72,0.00,,,0.00,Wunderground v.1.15,2013-05-07 17:11:00,
2013-05-07 13:16:00,63.2,52.9,29.78,NNE,28,0.0,0.0,69,0.00,,,0.00,Wunderground v.1.15,2013-05-07 17:16:00,
2013-05-07 13:21:00,64.3,52.7,29.78,NE,36,0.0,0.0,66,0.00,,,0.00,Wunderground v.1.15,2013-05-07 17:21:00,
2013-05-07 13:26:00,64.6,49.9,29.77,NE,36,0.0,0.0,59,0.00,,,0.00,Wunderground v.1.15,2013-05-07 17:26:00,
2013-05-07 13:31:00,64.9,50.2,29.77,NE,36,0.0,0.0,59,0.00,,,0.00,Wunderground v.1.15,2013-05-07 17:31:00,
2013-05-07 13:36:00,65.7,49.1,29.77,ENE,76,0.0,0.0,55,0.00,,,0.00,Wunderground v.1.15,2013-05-07 17:36:00,
2013-05-07 13:41:00,66.2,51.9,29.77,East,92,0.0,0.0,60,0.00,,,0.00,Wunderground v.1.15,2013-05-07 17:41:00,
2013-05-07 13:51:00,68.2,52.4,29.76,ESE,109,1.0,1.0,57,0.00,,,0.00,Wunderground v.1.15,2013-05-07 17:51:00,
2013-05-07 14:01:00,67.7,54.6,29.76,ENE,67,0.0,1.0,63,0.00,,,0.00,Wunderground v.1.15,2013-05-07 18:01:00,
2013-05-07 14:11:00,67.7,53.3,29.76,West,277,1.0,1.0,60,0.00,,,0.00,Wunderground v.1.15,2013-05-07 18:11:00,
2013-05-07 14:21:00,67.2,53.3,29.76,ESE,111,0.0,0.0,61,0.00,,,0.00,Wunderground v.1.15,2013-05-07 18:21:00,
2013-05-07 14:26:00,66.8,52.5,29.76,ESE,121,0.0,0.0,60,0.00,,,0.00,Wunderground v.1.15,2013-05-07 18:26:00,
2013-05-07 14:36:00,66.2,51.9,29.76,NE,45,1.0,10.0,60,0.00,,,0.00,Wunderground v.1.15,2013-05-07 18:36:00,
2013-05-07 14:46:00,65.1,50.9,29.76,NE,55,3.0,3.0,60,0.00,,,0.00,Wunderground v.1.15,2013-05-07 18:46:00,
2013-05-07 14:51:00,64.9,51.1,29.76,North,355,2.0,4.0,61,0.00,,,0.00,Wunderground v.1.15,2013-05-07 18:51:00,
2013-05-07 15:01:00,65.0,50.8,29.76,North,360,1.0,1.0,60,0.00,,,0.00,Wunderground v.1.15,2013-05-07 19:01:00,
2013-05-07 15:11:00,65.2,51.4,29.76,NE,56,0.0,0.0,61,0.00,,,0.00,Wunderground v.1.15,2013-05-07 19:11:00,
2013-05-07 15:16:00,65.4,52.5,29.76,NE,42,0.0,0.0,63,0.00,,,0.00,Wunderground v.1.15,2013-05-07 19:16:00,
2013-05-07 15:26:00,65.2,51.0,29.76,NNE,12,0.0,0.0,60,0.00,,,0.00,Wunderground v.1.15,2013-05-07 19:26:00,
2013-05-07 15:36:00,65.0,50.8,29.76,North,360,0.0,0.0,60,0.00,,,0.00,Wunderground v.1.15,2013-05-07 19:36:00,
2013-05-07 15:41:00,65.0,53.4,29.76,ENE,78,0.0,0.0,66,0.00,,,0.00,Wunderground v.1.15,2013-05-07 19:41:00,
2013-05-07 15:46:00,64.8,52.8,29.76,ENE,78,0.0,0.0,65,0.00,,,0.00,Wunderground v.1.15,2013-05-07 19:46:00,
2013-05-07 15:51:00,64.5,52.9,29.77,East,86,0.0,0.0,66,0.00,,,0.00,Wunderground v.1.15,2013-05-07 19:51:00,
2013-05-07 15:56:00,64.1,52.9,29.77,ENE,75,0.0,0.0,67,0.00,,,0.00,Wunderground v.1.15,2013-05-07 19:56:00,
2013-05-07 16:01:00,63.8,52.6,29.77,ENE,71,0.0,0.0,67,0.00,,,0.00,Wunderground v.1.15,2013-05-07 20:01:00,
2013-05-07 16:11:00,63.2,52.1,29.77,NE,46,0.0,0.0,67,0.00,,,0.00,Wunderground v.1.15,2013-05-07 20:11:00,
2013-05-07 16:16:00,62.9,52.6,29.77,NNE,32,0.0,0.0,69,0.00,,,0.00,Wunderground v.1.15,2013-05-07 20:16:00,
2013-05-07 16:21:00,62.7,51.6,29.77,NE,51,0.0,1.0,67,0.00,,,0.00,Wunderground v.1.15,2013-05-07 20:21:00,
2013-05-07 16:26:00,62.5,51.0,29.77,ENE,57,0.0,1.0,66,0.00,,,0.00,Wunderground v.1.15,2013-05-07 20:26:00,
2013-05-07 16:31:00,62.3,52.0,29.77,NE,38,0.0,0.0,69,0.00,,,0.00,Wunderground v.1.15,2013-05-07 20:31:00,
2013-05-07 16:36:00,62.2,51.5,29.77,NE,49,0.0,1.0,68,0.00,,,0.00,Wunderground v.1.15,2013-05-07 20:36:00,
2013-05-07 16:41:00,61.9,51.6,29.77,ENE,69,0.0,0.0,69,0.00,,,0.00,Wunderground v.1.15,2013-05-07 20:41:00,
2013-05-07 16:46:00,61.6,52.1,29.77,NE,50,0.0,0.0,71,0.00,,,0.00,Wunderground v.1.15,2013-05-07 20:46:00,
2013-05-07 16:51:00,61.2,51.7,29.77,ENE,68,0.0,0.0,71,0.00,,,0.00,Wunderground v.1.15,2013-05-07 20:51:00,
2013-05-07 16:56:00,60.9,52.9,29.77,ENE,61,0.0,0.0,75,0.00,,,0.00,Wunderground v.1.15,2013-05-07 20:56:00,
2013-05-07 17:01:00,60.5,52.5,29.77,ENE,61,0.0,0.0,75,0.00,,,0.00,Wunderground v.1.15,2013-05-07 21:01:00,
2013-05-07 17:10:00,60.0,52.8,29.78,ENE,61,0.0,0.0,77,0.00,,,0.01,Wunderground v.1.15,2013-05-07 21:10:00,
2013-05-07 17:16:00,59.8,52.9,29.78,ENE,61,0.0,0.0,78,0.00,,,0.01,Wunderground v.1.15,2013-05-07 21:16:00,
2013-05-07 17:21:00,59.7,52.8,29.78,ENE,61,0.0,0.0,78,0.00,,,0.01,Wunderground v.1.15,2013-05-07 21:21:00,
2013-05-07 17:26:00,59.6,52.4,29.78,ENE,61,0.0,0.0,77,0.00,,,0.01,Wunderground v.1.15,2013-05-07 21:26:00,
2013-05-07 17:36:00,59.3,53.1,29.80,ENE,61,0.0,0.0,80,0.00,,,0.01,Wunderground v.1.15,2013-05-07 21:36:00,
2013-05-07 17:41:00,59.0,52.1,29.80,NE,46,0.0,0.0,78,0.00,,,0.01,Wunderground v.1.15,2013-05-07 21:41:00,
2013-05-07 17:50:00,58.5,51.7,29.81,NE,56,0.0,0.0,78,0.00,,,0.01,Wunderground v.1.15,2013-05-07 21:50:00,
2013-05-07 17:55:00,58.3,51.8,29.80,NE,56,0.0,0.0,79,0.00,,,0.01,Wunderground v.1.15,2013-05-07 21:55:00,
2013-05-07 18:00:00,58.2,53.1,29.80,NE,56,0.0,0.0,83,0.00,,,0.01,Wunderground v.1.15,2013-05-07 22:00:00,
2013-05-07 18:05:00,57.9,53.4,29.81,NE,56,0.0,1.0,85,0.00,,,0.02,Wunderground v.1.15,2013-05-07 22:05:00,
2013-05-07 18:11:00,57.7,53.5,29.81,NE,56,0.0,1.0,86,0.00,,,0.02,Wunderground v.1.15,2013-05-07 22:11:00,
2013-05-07 18:16:00,57.5,53.7,29.81,NE,56,0.0,1.0,87,0.00,,,0.02,Wunderground v.1.15,2013-05-07 22:16:00,
2013-05-07 18:26:00,57.1,53.3,29.81,NE,56,0.0,1.0,87,0.00,,,0.02,Wunderground v.1.15,2013-05-07 22:26:00,
2013-05-07 18:31:00,57.0,53.5,29.81,NE,56,0.0,1.0,88,0.00,,,0.02,Wunderground v.1.15,2013-05-07 22:31:00,
2013-05-07 18:36:00,56.9,53.7,29.81,NE,56,0.0,1.0,89,0.00,,,0.02,Wunderground v.1.15,2013-05-07 22:36:00,
2013-05-07 18:41:00,56.7,52.2,29.81,NE,56,0.0,1.0,85,0.00,,,0.02,Wunderground v.1.15,2013-05-07 22:41:00,
2013-05-07 18:46:00,56.5,52.4,29.81,NE,56,0.0,1.0,86,0.00,,,0.02,Wunderground v.1.15,2013-05-07 22:46:00,
2013-05-07 18:55:00,56.4,52.9,29.82,NE,56,0.0,1.0,88,0.00,,,0.02,Wunderground v.1.15,2013-05-07 22:55:00,
2013-05-07 19:00:00,56.3,52.8,29.82,NE,56,0.0,1.0,88,0.00,,,0.02,Wunderground v.1.15,2013-05-07 23:00:00,
2013-05-07 19:05:00,56.1,52.3,29.82,NE,56,0.0,1.0,87,0.00,,,0.02,Wunderground v.1.15,2013-05-07 23:05:00,
2013-05-07 19:10:00,56.0,52.5,29.82,ENE,61,0.0,1.0,88,0.00,,,0.02,Wunderground v.1.15,2013-05-07 23:10:00,
2013-05-07 19:15:00,55.9,52.4,29.83,ENE,61,0.0,1.0,88,0.00,,,0.02,Wunderground v.1.15,2013-05-07 23:15:00,
2013-05-07 19:20:00,55.8,52.3,29.82,East,82,0.0,1.0,88,0.00,,,0.02,Wunderground v.1.15,2013-05-07 23:20:00,
2013-05-07 19:26:00,55.7,52.5,29.83,East,82,0.0,1.0,89,0.00,,,0.03,Wunderground v.1.15,2013-05-07 23:26:00,
2013-05-07 19:31:00,55.5,52.3,29.82,ENE,78,0.0,1.0,89,0.12,,,0.04,Wunderground v.1.15,2013-05-07 23:31:00,
2013-05-07 19:36:00,55.4,52.5,29.82,ENE,78,0.0,1.0,90,0.11,,,0.04,Wunderground v.1.15,2013-05-07 23:36:00,
2013-05-07 19:41:00,55.2,52.3,29.82,ENE,78,0.0,1.0,90,0.06,,,0.04,Wunderground v.1.15,2013-05-07 23:41:00,
2013-05-07 19:46:00,55.2,52.6,29.82,ENE,73,0.0,1.0,91,0.04,,,0.04,Wunderground v.1.15,2013-05-07 23:46:00,
2013-05-07 19:51:00,55.1,52.5,29.83,ENE,73,0.0,1.0,91,0.04,,,0.05,Wunderground v.1.15,2013-05-07 23:51:00,
2013-05-07 20:01:00,54.7,52.1,29.82,ENE,69,0.0,1.0,91,0.04,,,0.05,Wunderground v.1.15,2013-05-08 00:01:00,
2013-05-07 20:06:00,54.6,52.0,29.82,ENE,70,0.0,1.0,91,0.04,,,0.06,Wunderground v.1.15,2013-05-08 00:06:00,
2013-05-07 20:11:00,54.5,51.9,29.83,ENE,69,0.0,1.0,91,0.04,,,0.06,Wunderground v.1.15,2013-05-08 00:11:00,
2013-05-07 20:16:00,54.5,51.9,29.83,ENE,69,0.0,1.0,91,0.04,,,0.06,Wunderground v.1.15,2013-05-08 00:16:00,
2013-05-07 20:21:00,54.4,52.1,29.83,ENE,69,0.0,1.0,92,0.00,,,0.06,Wunderground v.1.15,2013-05-08 00:21:00,
2013-05-07 20:31:00,54.2,51.9,29.83,NNE,24,0.0,1.0,92,0.00,,,0.06,Wunderground v.1.15,2013-05-08 00:31:00,
2013-05-07 20:36:00,54.1,51.8,29.83,NNE,24,0.0,1.0,92,0.00,,,0.06,Wunderground v.1.15,2013-05-08 00:36:00,
2013-05-07 20:41:00,53.9,51.6,29.82,NNE,24,0.0,1.0,92,0.00,,,0.06,Wunderground v.1.15,2013-05-08 00:41:00,
2013-05-07 20:46:00,53.9,51.9,29.82,NNE,24,0.0,1.0,93,0.00,,,0.06,Wunderground v.1.15,2013-05-08 00:46:00,
2013-05-07 20:51:00,53.8,51.8,29.82,NNE,24,0.0,1.0,93,0.00,,,0.06,Wunderground v.1.15,2013-05-08 00:51:00,
2013-05-07 20:56:00,53.8,51.8,29.82,NNE,24,0.0,1.0,93,0.00,,,0.06,Wunderground v.1.15,2013-05-08 00:56:00,
2013-05-07 21:06:00,53.7,51.7,29.82,NNE,24,0.0,1.0,93,0.00,,,0.06,Wunderground v.1.15,2013-05-08 01:06:00,
2013-05-07 21:11:00,53.6,51.6,29.82,NNE,24,0.0,1.0,93,0.00,,,0.06,Wunderground v.1.15,2013-05-08 01:11:00,
2013-05-07 21:16:00,53.5,51.5,29.82,NNE,24,0.0,1.0,93,0.00,,,0.06,Wunderground v.1.15,2013-05-08 01:16:00,
2013-05-07 21:21:00,53.4,51.4,29.81,NNE,24,0.0,1.0,93,0.00,,,0.06,Wunderground v.1.15,2013-05-08 01:21:00,
2013-05-07 21:26:00,53.3,51.3,29.82,NNE,24,0.0,1.0,93,0.00,,,0.06,Wunderground v.1.15,2013-05-08 01:26:00,
2013-05-07 21:36:00,53.3,51.6,29.82,NNE,24,0.0,1.0,94,0.00,,,0.06,Wunderground v.1.15,2013-05-08 01:36:00,
2013-05-07 21:41:00,53.2,51.5,29.82,NNE,24,0.0,1.0,94,0.00,,,0.06,Wunderground v.1.15,2013-05-08 01:41:00,
2013-05-07 21:46:00,53.2,51.5,29.82,NNE,24,0.0,1.0,94,0.00,,,0.06,Wunderground v.1.15,2013-05-08 01:46:00,
2013-05-07 21:51:00,53.1,51.4,29.83,NNE,24,0.0,1.0,94,0.00,,,0.06,Wunderground v.1.15,2013-05-08 01:51:00,
2013-05-07 21:56:00,53.0,51.3,29.83,NNE,24,0.0,1.0,94,0.00,,,0.06,Wunderground v.1.15,2013-05-08 01:56:00,
2013-05-07 22:01:00,53.0,51.3,29.83,NNE,24,0.0,1.0,94,0.00,,,0.06,Wunderground v.1.15,2013-05-08 02:01:00,
2013-05-07 22:11:00,52.8,51.1,29.83,NNE,24,0.0,1.0,94,0.00,,,0.06,Wunderground v.1.15,2013-05-08 02:11:00,
2013-05-07 22:16:00,52.8,51.1,29.82,NNE,24,0.0,1.0,94,0.00,,,0.06,Wunderground v.1.15,2013-05-08 02:16:00,
2013-05-07 22:21:00,52.8,51.1,29.82,NNE,24,0.0,1.0,94,0.00,,,0.06,Wunderground v.1.15,2013-05-08 02:21:00,
2013-05-07 22:26:00,52.8,51.1,29.83,NNE,24,0.0,1.0,94,0.00,,,0.06,Wunderground v.1.15,2013-05-08 02:26:00,
2013-05-07 22:31:00,52.7,51.0,29.83,NNE,24,0.0,1.0,94,0.00,,,0.06,Wunderground v.1.15,2013-05-08 02:31:00,
2013-05-07 22:41:00,52.6,50.9,29.83,NNE,24,0.0,1.0,94,0.00,,,0.06,Wunderground v.1.15,2013-05-08 02:41:00,
2013-05-07 22:46:00,52.5,50.8,29.83,NNE,24,0.0,1.0,94,0.00,,,0.06,Wunderground v.1.15,2013-05-08 02:46:00,
2013-05-07 22:51:00,52.5,50.8,29.83,NNE,24,0.0,1.0,94,0.00,,,0.06,Wunderground v.1.15,2013-05-08 02:51:00,
2013-05-07 22:56:00,52.5,51.1,29.83,NNE,24,0.0,1.0,95,0.00,,,0.06,Wunderground v.1.15,2013-05-08 02:56:00,
2013-05-07 23:01:00,52.5,51.1,29.83,NNE,24,0.0,1.0,95,0.00,,,0.06,Wunderground v.1.15,2013-05-08 03:01:00,
2013-05-07 23:06:00,52.6,51.2,29.83,NNE,24,0.0,1.0,95,0.00,,,0.06,Wunderground v.1.15,2013-05-08 03:06:00,
2013-05-07 23:16:00,52.7,51.3,29.83,NNE,24,0.0,1.0,95,0.00,,,0.06,Wunderground v.1.15,2013-05-08 03:16:00,
2013-05-07 23:21:00,52.7,51.3,29.83,NNE,24,0.0,1.0,95,0.00,,,0.06,Wunderground v.1.15,2013-05-08 03:21:00,
2013-05-07 23:26:00,52.6,51.2,29.84,NNE,24,0.0,1.0,95,0.00,,,0.06,Wunderground v.1.15,2013-05-08 03:26:00,
2013-05-07 23:31:00,52.5,51.1,29.84,NNE,24,0.0,1.0,95,0.00,,,0.06,Wunderground v.1.15,2013-05-08 03:31:00,
2013-05-07 23:36:00,52.5,51.1,29.84,NNE,24,0.0,1.0,95,0.00,,,0.06,Wunderground v.1.15,2013-05-08 03:36:00,
2013-05-07 23:45:00,52.4,51.0,29.84,NNE,24,0.0,1.0,95,0.00,,,0.06,Wunderground v.1.15,2013-05-08 03:45:00,
2013-05-07 23:50:00,52.4,51.0,29.84,NNE,24,0.0,1.0,95,0.00,,,0.06,Wunderground v.1.15,2013-05-08 03:50:00,
2013-05-07 23:55:00,52.4,51.0,29.84,NNE,24,0.0,1.0,95,0.00,,,0.06,Wunderground v.1.15,2013-05-08 03:55:00,